Time;durP1;ratioP1;P1;durP2;ratioP2;P2;SDS_P1;SDS_P2;PMS_P1;PMS_P2;Temp;Humidity;BMP_temperature;BMP_pressure;BME280_temperature;BME280_humidity;BME280_pressure;Samples;Min_cycle;Max_cycle;Signal;HPM_P1;HPM_P2
2022/04/18 00:00:43;;;;;;;20.40;17.15;;;;;;;;;;5092083;28;20049;-82
2022/04/18 00:03:09;;;;;;;19.25;15.48;;;;;;;;;;5074891;28;20039;-81
2022/04/18 00:05:35;;;;;;;21.70;15.32;;;;;;;;;;5075034;28;20057;-82
2022/04/18 00:08:03;;;;;;;21.45;16.58;;;;;;;;;;5074932;28;20039;-82
2022/04/18 00:10:29;;;;;;;23.65;16.83;;;;;;;;;;5092116;28;20035;-82
2022/04/18 00:12:55;;;;;;;24.63;17.38;;;;;;;;;;5092044;28;20071;-81
2022/04/18 00:15:23;;;;;;;21.23;17.73;;;;;;;;;;5074900;28;20077;-82
2022/04/18 00:17:50;;;;;;;24.15;17.17;;;;;;;;;;5092114;28;20062;-82
2022/04/18 00:20:16;;;;;;;22.35;16.85;;;;;;;;;;5074977;28;20076;-81
2022/04/18 00:22:44;;;;;;;23.30;17.95;;;;;;;;;;5080641;28;20054;-81
2022/04/18 00:25:10;;;;;;;22.95;17.50;;;;;;;;;;5090996;28;20533;-81
2022/04/18 00:27:37;;;;;;;30.85;19.27;;;;;;;;;;5092122;28;20044;-82
2022/04/18 00:30:09;;;;;;;23.17;18.30;;;;;;;;;;5091935;28;20180;-82
2022/04/18 00:32:35;;;;;;;24.23;18.70;;;;;;;;;;5075229;28;20490;-81
2022/04/18 00:35:02;;;;;;;26.85;18.48;;;;;;;;;;5091573;28;20043;-81
2022/04/18 00:37:28;;;;;;;25.70;18.98;;;;;;;;;;5074478;28;20130;-81
2022/04/18 00:39:55;;;;;;;25.40;19.75;;;;;;;;;;5074560;28;20099;-81
2022/04/18 00:42:21;;;;;;;23.85;18.13;;;;;;;;;;5091209;28;20081;-82
2022/04/18 00:44:47;;;;;;;24.17;17.80;;;;;;;;;;5091402;28;20290;-81
2022/04/18 00:47:13;;;;;;;22.70;17.40;;;;;;;;;;5091177;28;20043;-81
2022/04/18 00:49:39;;;;;;;24.08;18.50;;;;;;;;;;5092025;28;20501;-81
2022/04/18 00:52:06;;;;;;;23.55;19.15;;;;;;;;;;5091254;28;20031;-81
2022/04/18 00:54:33;;;;;;;25.08;19.30;;;;;;;;;;5074629;28;20441;-81
2022/04/18 00:56:59;;;;;;;21.25;17.35;;;;;;;;;;5074174;28;20035;-81
2022/04/18 00:59:25;;;;;;;22.42;18.05;;;;;;;;;;5074312;28;20039;-81
2022/04/18 01:01:51;;;;;;;24.92;18.85;;;;;;;;;;5074041;28;20035;-81
2022/04/18 01:04:18;;;;;;;25.20;18.60;;;;;;;;;;5090984;28;20047;-81
2022/04/18 01:06:45;;;;;;;24.20;18.38;;;;;;;;;;5091383;28;20500;-81
2022/04/18 01:09:12;;;;;;;24.80;18.25;;;;;;;;;;5091033;28;20051;-81
2022/04/18 01:11:38;;;;;;;24.13;18.80;;;;;;;;;;5074403;28;20524;-81
2022/04/18 01:14:04;;;;;;;24.67;18.77;;;;;;;;;;5091005;28;20147;-81
2022/04/18 01:16:30;;;;;;;24.67;18.67;;;;;;;;;;5073910;28;20038;-81
2022/04/18 01:18:57;;;;;;;25.83;17.77;;;;;;;;;;5090692;28;20039;-81
2022/04/18 01:21:23;;;;;;;25.35;19.05;;;;;;;;;;5074151;28;20039;-81
2022/04/18 01:23:49;;;;;;;25.88;17.77;;;;;;;;;;5074701;28;20043;-82
2022/04/18 01:29:03;;;;;;;24.23;17.98;;;;;;;;;;5090369;28;20046;-81
2022/04/18 01:31:31;;;;;;;23.65;18.00;;;;;;;;;;5090530;28;20038;-81
2022/04/18 01:33:57;;;;;;;28.33;19.73;;;;;;;;;;5073553;28;20064;-81
2022/04/18 01:36:24;;;;;;;24.35;18.38;;;;;;;;;;5090459;28;20406;-81
2022/04/18 01:38:51;;;;;;;23.75;18.67;;;;;;;;;;5090607;28;20035;-81
2022/04/18 01:41:17;;;;;;;27.90;19.20;;;;;;;;;;5073663;28;20047;-81
2022/04/18 01:43:44;;;;;;;25.75;19.17;;;;;;;;;;5090513;28;20274;-81
2022/04/18 01:46:10;;;;;;;24.23;18.48;;;;;;;;;;5090739;28;20650;-81
2022/04/18 01:48:37;;;;;;;23.30;18.13;;;;;;;;;;5090688;28;20514;-81
2022/04/18 01:51:03;;;;;;;23.88;18.25;;;;;;;;;;5090348;28;20047;-81
2022/04/18 01:53:31;;;;;;;24.67;17.42;;;;;;;;;;5073636;28;20490;-81
2022/04/18 01:55:57;;;;;;;22.73;18.58;;;;;;;;;;5073615;28;20042;-81
2022/04/18 01:58:23;;;;;;;25.55;18.55;;;;;;;;;;5090615;28;20418;-81
2022/04/18 02:00:50;;;;;;;24.42;17.45;;;;;;;;;;5090223;28;20381;-81
2022/04/18 02:03:16;;;;;;;22.42;16.83;;;;;;;;;;5073702;28;20126;-81
2022/04/18 02:05:43;;;;;;;24.13;16.48;;;;;;;;;;5090489;28;20044;-81
2022/04/18 02:08:09;;;;;;;22.52;17.17;;;;;;;;;;5090819;28;20044;-81
2022/04/18 02:10:35;;;;;;;21.80;17.50;;;;;;;;;;5090212;28;20067;-81
2022/04/18 02:13:01;;;;;;;21.60;16.70;;;;;;;;;;5090826;28;20562;-81
2022/04/18 02:15:27;;;;;;;22.13;17.08;;;;;;;;;;5072921;28;20177;-81
2022/04/18 02:17:54;;;;;;;21.65;16.98;;;;;;;;;;5079474;28;20540;-81
2022/04/18 02:20:20;;;;;;;23.45;17.65;;;;;;;;;;5090131;28;20126;-81
2022/04/18 02:22:46;;;;;;;20.85;15.85;;;;;;;;;;5073231;28;20073;-81
2022/04/18 02:25:13;;;;;;;25.35;17.23;;;;;;;;;;5072870;28;20042;-81
2022/04/18 02:27:39;;;;;;;21.77;17.20;;;;;;;;;;5090117;28;20100;-81
2022/04/18 02:30:05;;;;;;;22.30;16.67;;;;;;;;;;5090061;28;20097;-81
2022/04/18 02:32:47;;;;;;;22.02;17.08;;;;;;;;;;5073644;28;20050;-81
2022/04/18 02:35:14;;;;;;;21.58;16.48;;;;;;;;;;5090165;28;20043;-81
2022/04/18 02:37:40;;;;;;;22.52;16.58;;;;;;;;;;5073103;28;20039;-80
2022/04/18 02:40:06;;;;;;;20.67;16.75;;;;;;;;;;5072938;28;20067;-81
2022/04/18 02:42:33;;;;;;;21.60;16.95;;;;;;;;;;5072912;28;20048;-81
2022/04/18 02:44:59;;;;;;;20.50;16.40;;;;;;;;;;5090217;28;20074;-81
2022/04/18 02:47:25;;;;;;;23.42;17.70;;;;;;;;;;5091181;28;20043;-81
2022/04/18 02:49:51;;;;;;;22.27;17.70;;;;;;;;;;5093224;28;20036;-81
2022/04/18 02:52:18;;;;;;;21.85;17.13;;;;;;;;;;5093891;28;20051;-81
2022/04/18 02:54:45;;;;;;;21.58;17.10;;;;;;;;;;5076742;28;20471;-81
2022/04/18 02:57:12;;;;;;;22.70;18.25;;;;;;;;;;5093415;28;20085;-81
2022/04/18 02:59:38;;;;;;;24.90;17.38;;;;;;;;;;5076462;28;20043;-81
2022/04/18 03:02:05;;;;;;;25.20;17.52;;;;;;;;;;5093657;28;20523;-80
2022/04/18 03:04:31;;;;;;;22.20;17.42;;;;;;;;;;5076404;28;20127;-80
2022/04/18 03:06:57;;;;;;;22.88;17.65;;;;;;;;;;5093198;28;20302;-83
2022/04/18 03:09:23;;;;;;;23.58;18.58;;;;;;;;;;5076416;28;20039;-83
2022/04/18 03:11:49;;;;;;;22.05;18.05;;;;;;;;;;5093425;28;20120;-83
2022/04/18 03:14:15;;;;;;;22.83;18.15;;;;;;;;;;5076345;28;20043;-82
2022/04/18 03:16:41;;;;;;;23.60;17.55;;;;;;;;;;5093298;28;20040;-83
2022/04/18 03:19:08;;;;;;;23.60;17.20;;;;;;;;;;5076404;28;20065;-83
2022/04/18 03:21:34;;;;;;;23.70;18.70;;;;;;;;;;5076246;28;20572;-83
2022/04/18 03:24:00;;;;;;;22.08;17.27;;;;;;;;;;5075723;28;20043;-83
2022/04/18 03:26:26;;;;;;;23.58;18.30;;;;;;;;;;5092658;28;20326;-83
2022/04/18 03:28:52;;;;;;;23.42;17.63;;;;;;;;;;5075891;28;20043;-82
2022/04/18 03:31:19;;;;;;;22.88;18.73;;;;;;;;;;5075726;28;20067;-83
2022/04/18 03:33:45;;;;;;;23.90;17.20;;;;;;;;;;5075777;28;20058;-83
2022/04/18 03:41:41;;;;;;;23.23;17.20;;;;;;;;;;5092817;28;20444;-82
2022/04/18 03:44:09;;;;;;;22.83;17.55;;;;;;;;;;5075410;28;20089;-82
2022/04/18 03:46:35;;;;;;;24.73;17.90;;;;;;;;;;5075898;28;20043;-82
2022/04/18 03:49:01;;;;;;;22.42;18.42;;;;;;;;;;5092541;28;20289;-82
2022/04/18 03:51:28;;;;;;;23.52;17.42;;;;;;;;;;5075457;28;20039;-82
2022/04/18 03:53:54;;;;;;;23.25;16.70;;;;;;;;;;5092278;28;20040;-82
2022/04/18 03:56:20;;;;;;;22.38;17.73;;;;;;;;;;5075625;28;20047;-82
2022/04/18 03:58:46;;;;;;;21.60;17.40;;;;;;;;;;5092067;28;20480;-82
2022/04/18 04:01:12;;;;;;;23.17;17.05;;;;;;;;;;5092474;28;20163;-82
2022/04/18 04:03:39;;;;;;;22.10;17.67;;;;;;;;;;5075059;28;20074;-82
2022/04/18 04:06:05;;;;;;;20.75;15.98;;;;;;;;;;5092480;28;20126;-82
2022/04/18 04:08:32;;;;;;;22.02;17.08;;;;;;;;;;5075179;28;20084;-83
2022/04/18 04:10:58;;;;;;;22.17;17.83;;;;;;;;;;5075107;28;20159;-83
2022/04/18 04:13:28;;;;;;;20.50;15.85;;;;;;;;;;5075323;28;20448;-82
2022/04/18 04:15:54;;;;;;;21.58;16.35;;;;;;;;;;5091936;28;20042;-82
2022/04/18 04:18:20;;;;;;;20.83;16.33;;;;;;;;;;5092113;28;20035;-83
2022/04/18 04:20:46;;;;;;;20.65;16.75;;;;;;;;;;5091979;28;20126;-83
2022/04/18 04:23:12;;;;;;;20.17;16.48;;;;;;;;;;5091430;28;20039;-83
2022/04/18 04:25:38;;;;;;;21.58;17.70;;;;;;;;;;5075145;28;20422;-83
2022/04/18 04:28:05;;;;;;;22.15;15.88;;;;;;;;;;5075066;28;20402;-83
2022/04/18 04:30:31;;;;;;;23.15;16.00;;;;;;;;;;5074947;28;20245;-82
2022/04/18 04:32:57;;;;;;;21.20;15.98;;;;;;;;;;5075016;28;20718;-83
2022/04/18 04:35:23;;;;;;;19.83;15.48;;;;;;;;;;5074749;28;20289;-83
2022/04/18 04:37:49;;;;;;;22.63;15.80;;;;;;;;;;5074354;28;20046;-83
2022/04/18 04:40:15;;;;;;;19.58;15.48;;;;;;;;;;5074841;28;20481;-82
2022/04/18 04:42:41;;;;;;;20.10;15.80;;;;;;;;;;5074838;28;20036;-83
2022/04/18 04:45:08;;;;;;;23.13;16.25;;;;;;;;;;5092090;28;20443;-82
2022/04/18 04:47:34;;;;;;;21.63;15.40;;;;;;;;;;5074381;28;20036;-83
2022/04/18 04:50:00;;;;;;;20.40;15.15;;;;;;;;;;5074369;28;20127;-82
2022/04/18 04:52:27;;;;;;;19.05;14.15;;;;;;;;;;5091278;28;20054;-82
2022/04/18 04:54:59;;;;;;;19.52;16.00;;;;;;;;;;5074561;28;20040;-83
2022/04/18 04:57:26;;;;;;;18.50;15.50;;;;;;;;;;5074169;28;20123;-82
2022/04/18 04:59:52;;;;;;;19.83;15.35;;;;;;;;;;5074520;28;20118;-82
2022/04/18 05:02:19;;;;;;;22.05;16.08;;;;;;;;;;5074432;28;20562;-83
2022/04/18 05:04:45;;;;;;;20.10;15.95;;;;;;;;;;5090952;28;20051;-82
2022/04/18 05:07:11;;;;;;;20.30;15.48;;;;;;;;;;5091060;28;20046;-83
2022/04/18 05:09:38;;;;;;;22.70;15.35;;;;;;;;;;5073559;28;20046;-82
2022/04/18 05:12:04;;;;;;;20.40;15.98;;;;;;;;;;5074484;28;20032;-83
2022/04/18 05:14:30;;;;;;;19.40;14.80;;;;;;;;;;5074230;28;20060;-82
2022/04/18 05:17:01;;;;;;;23.52;15.45;;;;;;;;;;5074475;28;20038;-82
2022/04/18 05:19:27;;;;;;;19.15;13.88;;;;;;;;;;5074660;28;20122;-82
2022/04/18 05:21:53;;;;;;;18.77;13.57;;;;;;;;;;5073957;28;20122;-82
2022/04/18 05:24:20;;;;;;;18.13;14.00;;;;;;;;;;5091137;28;20062;-82
2022/04/18 05:26:46;;;;;;;19.30;13.35;;;;;;;;;;5091192;28;20068;-82
2022/04/18 05:29:13;;;;;;;19.73;14.15;;;;;;;;;;5073693;28;20035;-82
2022/04/18 05:31:39;;;;;;;18.15;13.85;;;;;;;;;;5073982;28;20123;-83
2022/04/18 05:34:05;;;;;;;16.63;12.85;;;;;;;;;;5090514;28;20406;-82
2022/04/18 05:36:31;;;;;;;18.40;14.20;;;;;;;;;;5073708;28;20042;-82
2022/04/18 05:38:57;;;;;;;19.02;13.52;;;;;;;;;;5073640;28;20171;-83
2022/04/18 05:41:23;;;;;;;21.48;14.15;;;;;;;;;;5090515;28;20111;-82
2022/04/18 05:43:50;;;;;;;20.52;13.98;;;;;;;;;;5073706;28;20044;-83
2022/04/18 05:46:16;;;;;;;17.20;13.73;;;;;;;;;;5073859;28;20043;-83
2022/04/18 05:48:43;;;;;;;19.75;13.55;;;;;;;;;;5073708;28;20503;-83
2022/04/18 05:51:09;;;;;;;16.73;13.10;;;;;;;;;;5090461;28;20092;-83
2022/04/18 05:53:35;;;;;;;18.33;13.57;;;;;;;;;;5073846;28;20482;-83
2022/04/18 05:56:02;;;;;;;18.95;13.57;;;;;;;;;;5073522;28;20039;-83
2022/04/18 05:58:28;;;;;;;20.20;13.55;;;;;;;;;;5090594;28;20043;-83
2022/04/18 06:00:54;;;;;;;19.25;13.20;;;;;;;;;;5073622;28;20040;-83
2022/04/18 06:03:20;;;;;;;17.67;13.80;;;;;;;;;;5073832;28;20054;-83
2022/04/18 06:05:47;;;;;;;15.90;12.07;;;;;;;;;;5073837;28;20454;-83
2022/04/18 06:08:13;;;;;;;17.70;13.25;;;;;;;;;;5073145;28;20054;-83
2022/04/18 06:10:41;;;;;;;20.77;14.57;;;;;;;;;;5090543;28;20047;-83
2022/04/18 06:13:09;;;;;;;18.60;14.23;;;;;;;;;;5073576;28;20089;-82
2022/04/18 06:15:40;;;;;;;16.63;13.00;;;;;;;;;;5090244;28;20043;-82
2022/04/18 06:18:07;;;;;;;16.50;13.20;;;;;;;;;;5073592;28;20498;-82
2022/04/18 06:20:42;;;;;;;19.13;13.43;;;;;;;;;;5090365;28;20494;-83
2022/04/18 06:23:08;;;;;;;17.52;13.18;;;;;;;;;;5070772;28;20044;-83
2022/04/18 06:25:34;;;;;;;16.92;12.73;;;;;;;;;;5077212;28;20100;-83
2022/04/18 06:28:00;;;;;;;17.27;12.68;;;;;;;;;;5094330;28;20345;-83
2022/04/18 06:30:26;;;;;;;17.42;12.10;;;;;;;;;;5094211;28;20078;-82
2022/04/18 06:32:52;;;;;;;17.55;13.35;;;;;;;;;;5093549;27;20104;-84
2022/04/18 06:35:22;;;;;;;18.63;13.43;;;;;;;;;;5073265;28;20490;-83
2022/04/18 06:37:48;;;;;;;17.13;12.98;;;;;;;;;;5075739;28;20046;-83
2022/04/18 06:40:14;;;;;;;17.25;12.63;;;;;;;;;;5103806;28;20580;-83
2022/04/18 06:42:40;;;;;;;18.13;12.68;;;;;;;;;;5075689;28;20071;-83
2022/04/18 06:45:06;;;;;;;17.27;12.23;;;;;;;;;;5118418;27;20149;-83
2022/04/18 06:47:33;;;;;;;15.90;12.18;;;;;;;;;;5100737;28;20074;-83
2022/04/18 06:49:59;;;;;;;15.98;11.90;;;;;;;;;;5075525;28;20031;-84
2022/04/18 06:52:26;;;;;;;17.08;11.75;;;;;;;;;;5075440;28;20069;-84
2022/04/18 06:54:52;;;;;;;14.98;11.02;;;;;;;;;;5105782;28;20071;-84
2022/04/18 06:57:18;;;;;;;16.98;12.07;;;;;;;;;;5110151;28;20452;-83
2022/04/18 06:59:46;;;;;;;17.33;12.73;;;;;;;;;;5092358;28;20234;-84
2022/04/18 07:02:12;;;;;;;16.13;11.93;;;;;;;;;;5080758;28;20077;-84
2022/04/18 07:04:38;;;;;;;14.52;11.20;;;;;;;;;;5075300;28;20274;-84
2022/04/18 07:07:06;;;;;;;14.85;11.43;;;;;;;;;;5075906;28;20042;-84
2022/04/18 07:09:32;;;;;;;15.00;11.45;;;;;;;;;;5075867;28;20035;-84
2022/04/18 07:11:58;;;;;;;16.70;12.15;;;;;;;;;;5082025;27;20039;-84
2022/04/18 07:14:25;;;;;;;17.88;12.48;;;;;;;;;;5080646;27;20027;-85
2022/04/18 07:16:53;;;;;;;16.35;11.90;;;;;;;;;;5081970;27;20035;-84
2022/04/18 07:19:19;;;;;;;16.92;12.07;;;;;;;;;;5080017;28;20043;-84
2022/04/18 07:21:45;;;;;;;14.50;11.77;;;;;;;;;;5083101;27;20066;-84
2022/04/18 07:24:12;;;;;;;16.67;12.50;;;;;;;;;;5079916;27;20047;-86
2022/04/18 07:26:38;;;;;;;14.90;11.02;;;;;;;;;;5081244;28;20036;-84
2022/04/18 07:29:04;;;;;;;16.05;11.80;;;;;;;;;;5062628;28;20085;-85
2022/04/18 07:31:31;;;;;;;16.85;12.23;;;;;;;;;;5075901;28;20071;-82
2022/04/18 07:33:58;;;;;;;15.07;11.35;;;;;;;;;;5074125;28;20451;-82
2022/04/18 07:36:24;;;;;;;16.75;11.88;;;;;;;;;;5073900;28;20399;-84
2022/04/18 07:39:05;;;;;;;14.50;11.55;;;;;;;;;;5074872;28;20039;-82
2022/04/18 07:41:32;;;;;;;15.80;11.85;;;;;;;;;;5075982;28;20452;-82
2022/04/18 07:43:58;;;;;;;16.42;11.80;;;;;;;;;;5073005;28;20044;-79
2022/04/18 07:46:25;;;;;;;16.50;11.68;;;;;;;;;;5077667;28;20048;-80
2022/04/18 07:48:51;;;;;;;15.85;11.60;;;;;;;;;;5078287;28;20101;-80
2022/04/18 07:51:35;;;;;;;14.85;11.52;;;;;;;;;;5069571;27;20035;-81
2022/04/18 07:54:05;;;;;;;14.05;11.20;;;;;;;;;;5071990;28;20039;-80
2022/04/18 07:56:32;;;;;;;14.88;11.85;;;;;;;;;;5078853;28;20084;-82
2022/04/18 07:58:58;;;;;;;13.77;10.82;;;;;;;;;;5077691;28;20040;-81
2022/04/18 08:01:24;;;;;;;13.70;10.80;;;;;;;;;;5071680;28;20040;-83
2022/04/18 08:03:51;;;;;;;14.82;10.57;;;;;;;;;;5064421;28;20044;-82
2022/04/18 08:06:17;;;;;;;14.90;10.93;;;;;;;;;;5070971;28;20047;-82
2022/04/18 08:08:44;;;;;;;15.88;11.43;;;;;;;;;;5091009;28;20036;-83
2022/04/18 08:11:11;;;;;;;15.25;12.32;;;;;;;;;;5074936;28;20036;-82
2022/04/18 08:13:41;;;;;;;14.27;10.23;;;;;;;;;;5091785;28;20035;-82
2022/04/18 08:16:08;;;;;;;14.93;11.18;;;;;;;;;;5073756;28;20126;-82
2022/04/18 08:18:36;;;;;;;13.88;10.52;;;;;;;;;;5075239;28;20046;-83
2022/04/18 08:21:03;;;;;;;13.60;9.57;;;;;;;;;;5079264;28;20050;-82
2022/04/18 08:23:30;;;;;;;14.43;10.25;;;;;;;;;;5085867;28;20054;-82
2022/04/18 08:25:56;;;;;;;13.55;9.15;;;;;;;;;;5066960;28;20414;-82
2022/04/18 08:28:22;;;;;;;14.48;9.07;;;;;;;;;;5080139;28;20040;-83
2022/04/18 08:30:48;;;;;;;11.05;7.97;;;;;;;;;;5084314;28;20067;-84
2022/04/18 08:33:14;;;;;;;13.07;9.48;;;;;;;;;;5068615;28;20167;-83
2022/04/18 08:35:41;;;;;;;11.85;7.75;;;;;;;;;;5074443;28;20068;-83
2022/04/18 08:38:07;;;;;;;13.70;8.10;;;;;;;;;;5074352;28;20122;-82
2022/04/18 08:40:34;;;;;;;12.00;8.65;;;;;;;;;;5056017;28;20301;-82
2022/04/18 08:43:00;;;;;;;12.57;8.77;;;;;;;;;;5062268;28;20037;-84
2022/04/18 08:45:28;;;;;;;13.02;8.35;;;;;;;;;;5079349;28;20131;-83
2022/04/18 08:53:30;;;;;;;10.25;7.13;;;;;;;;;;5086971;28;20036;-83
2022/04/18 08:55:56;;;;;;;10.45;7.63;;;;;;;;;;5089171;28;20556;-83
2022/04/18 08:58:23;;;;;;;9.90;7.45;;;;;;;;;;5088784;28;20044;-83
2022/04/18 09:00:50;;;;;;;11.85;7.70;;;;;;;;;;5088298;28;20046;-85
2022/04/18 09:03:16;;;;;;;10.90;7.35;;;;;;;;;;5072548;28;20469;-83
2022/04/18 09:05:42;;;;;;;10.68;7.10;;;;;;;;;;5072573;28;20407;-84
2022/04/18 09:08:09;;;;;;;9.57;6.47;;;;;;;;;;5071571;28;20449;-83
2022/04/18 09:10:36;;;;;;;10.32;7.13;;;;;;;;;;5087614;28;20396;-80
2022/04/18 09:13:03;;;;;;;9.93;6.95;;;;;;;;;;5071631;28;20235;-82
2022/04/18 09:15:31;;;;;;;11.10;7.40;;;;;;;;;;5071564;28;20036;-81
2022/04/18 09:18:06;;;;;;;9.45;6.85;;;;;;;;;;5070243;28;20499;-83
2022/04/18 09:20:40;;;;;;;12.43;7.68;;;;;;;;;;5070870;28;20047;-83
2022/04/18 09:23:06;;;;;;;11.25;7.18;;;;;;;;;;5074872;28;20534;-83
2022/04/18 09:25:38;;;;;;;9.77;6.88;;;;;;;;;;5071021;28;20067;-83
2022/04/18 09:28:04;;;;;;;10.00;7.43;;;;;;;;;;5062261;28;20044;-83
2022/04/18 09:30:33;;;;;;;10.68;6.85;;;;;;;;;;5082112;28;20039;-82
2022/04/18 09:32:59;;;;;;;9.35;6.85;;;;;;;;;;5086967;28;20058;-82
2022/04/18 09:35:26;;;;;;;11.48;7.30;;;;;;;;;;5066893;28;20048;-82
2022/04/18 09:37:56;;;;;;;11.13;7.10;;;;;;;;;;5075398;28;20075;-82
2022/04/18 09:40:23;;;;;;;14.13;7.18;;;;;;;;;;5070520;28;20040;-84
2022/04/18 09:42:52;;;;;;;11.13;7.25;;;;;;;;;;5087866;28;20510;-83
2022/04/18 09:45:19;;;;;;;11.10;7.72;;;;;;;;;;5069763;28;20033;-86
2022/04/18 09:47:53;;;;;;;10.55;7.28;;;;;;;;;;5073060;28;20392;-84
2022/04/18 09:53:04;;;;;;;11.73;7.30;;;;;;;;;;5089037;28;20402;-84
2022/04/18 09:55:30;;;;;;;11.10;7.40;;;;;;;;;;5059968;28;20036;-84
2022/04/18 09:58:03;;;;;;;10.80;6.25;;;;;;;;;;5074893;28;20079;-83
2022/04/18 10:00:30;;;;;;;10.90;7.95;;;;;;;;;;5076885;28;20046;-85
2022/04/18 10:02:59;;;;;;;9.70;6.50;;;;;;;;;;5089490;28;20028;-84
2022/04/18 10:05:27;;;;;;;12.07;7.47;;;;;;;;;;5073879;28;20391;-83
2022/04/18 10:07:54;;;;;;;12.90;7.57;;;;;;;;;;5088772;28;20040;-86
2022/04/18 10:10:21;;;;;;;9.63;6.47;;;;;;;;;;5073446;28;20043;-86
2022/04/18 10:12:56;;;;;;;10.70;5.95;;;;;;;;;;5072677;28;20036;-84
2022/04/18 10:15:23;;;;;;;8.95;6.13;;;;;;;;;;5072513;28;20032;-84
2022/04/18 10:17:50;;;;;;;8.88;5.93;;;;;;;;;;5090644;28;20043;-85
2022/04/18 10:20:36;;;;;;;9.15;6.40;;;;;;;;;;5073542;28;20164;-85
2022/04/18 10:23:15;;;;;;;8.93;6.30;;;;;;;;;;5030886;28;20044;-85
2022/04/18 10:25:47;;;;;;;10.38;6.13;;;;;;;;;;5089564;28;20449;-84
2022/04/18 10:28:16;;;;;;;9.55;5.65;;;;;;;;;;5088793;28;20096;-85
2022/04/18 10:30:45;;;;;;;8.38;4.75;;;;;;;;;;5073536;28;20495;-85
2022/04/18 10:33:14;;;;;;;7.10;4.03;;;;;;;;;;5073003;28;20382;-84
2022/04/18 10:35:48;;;;;;;8.05;5.30;;;;;;;;;;5073229;28;20032;-84
2022/04/18 10:38:14;;;;;;;8.55;5.10;;;;;;;;;;5072315;28;20075;-84
2022/04/18 10:40:40;;;;;;;8.02;5.25;;;;;;;;;;5073065;28;20495;-84
2022/04/18 10:43:10;;;;;;;9.27;6.22;;;;;;;;;;5072805;28;20081;-83
2022/04/18 10:45:36;;;;;;;9.23;6.30;;;;;;;;;;5073232;28;20583;-85
2022/04/18 10:48:05;;;;;;;9.52;6.45;;;;;;;;;;5072748;28;20051;-83
2022/04/18 10:50:35;;;;;;;9.70;5.78;;;;;;;;;;5070370;28;20420;-85
2022/04/18 10:53:13;;;;;;;8.32;5.53;;;;;;;;;;5073236;28;20347;-83
2022/04/18 10:55:41;;;;;;;8.68;5.30;;;;;;;;;;5070947;28;20116;-84
2022/04/18 10:58:12;;;;;;;8.48;5.72;;;;;;;;;;5072110;28;20083;-84
2022/04/18 11:00:46;;;;;;;8.43;5.40;;;;;;;;;;5074223;28;20086;-85
2022/04/18 11:03:12;;;;;;;8.18;5.55;;;;;;;;;;5072607;28;20075;-86
2022/04/18 11:05:38;;;;;;;7.63;5.47;;;;;;;;;;5091713;28;20078;-85
2022/04/18 11:08:27;;;;;;;9.10;5.82;;;;;;;;;;5073781;28;20088;-83
2022/04/18 11:11:03;;;;;;;8.20;5.60;;;;;;;;;;5073954;28;20069;-83
2022/04/18 11:13:31;;;;;;;8.88;5.97;;;;;;;;;;5074731;28;20084;-84
2022/04/18 11:16:16;;;;;;;8.50;5.10;;;;;;;;;;5091929;28;20369;-84
2022/04/18 11:18:42;;;;;;;7.95;4.72;;;;;;;;;;5073317;28;20465;-83
2022/04/18 11:21:09;;;;;;;8.25;4.80;;;;;;;;;;5071287;28;20406;-83
2022/04/18 11:23:35;;;;;;;7.97;4.88;;;;;;;;;;5072249;28;20036;-84
2022/04/18 11:26:02;;;;;;;6.53;4.55;;;;;;;;;;5089482;28;20040;-85
2022/04/18 11:28:51;;;;;;;9.13;5.03;;;;;;;;;;5070235;28;20523;-84
2022/04/18 11:31:19;;;;;;;8.00;4.90;;;;;;;;;;5073956;28;20069;-85
2022/04/18 11:33:45;;;;;;;8.43;4.35;;;;;;;;;;5074917;28;20048;-84
2022/04/18 11:36:13;;;;;;;7.13;4.70;;;;;;;;;;5090203;28;20089;-86
2022/04/18 11:38:39;;;;;;;7.53;4.25;;;;;;;;;;5071176;28;20090;-85
2022/04/18 11:41:10;;;;;;;7.03;4.13;;;;;;;;;;5071514;28;20502;-86
2022/04/18 11:43:36;;;;;;;8.75;3.90;;;;;;;;;;5072836;28;20042;-83
2022/04/18 11:46:07;;;;;;;6.70;3.85;;;;;;;;;;5088889;28;20101;-87
2022/04/18 11:48:34;;;;;;;7.85;4.30;;;;;;;;;;5088880;28;20044;-86
2022/04/18 11:51:01;;;;;;;7.03;4.53;;;;;;;;;;5072881;28;20624;-86
2022/04/18 11:53:36;;;;;;;7.30;4.85;;;;;;;;;;5077588;28;20531;-85
2022/04/18 11:56:03;;;;;;;8.63;4.65;;;;;;;;;;5090168;28;20079;-85
2022/04/18 11:58:35;;;;;;;7.53;5.10;;;;;;;;;;5072573;28;20492;-87
2022/04/18 12:06:50;;;;;;;7.78;5.20;;;;;;;;;;5090992;28;20043;-85
2022/04/18 12:09:25;;;;;;;6.97;4.57;;;;;;;;;;5072846;28;20056;-86
2022/04/18 12:11:51;;;;;;;;;;;;;;;;;;5079288;28;20048;-86
2022/04/18 12:14:18;;;;;;;8.57;5.10;;;;;;;;;;5073236;28;19920;-84
2022/04/18 12:16:44;;;;;;;7.15;5.32;;;;;;;;;;5076756;28;20173;-86
2022/04/18 12:19:29;;;;;;;7.80;4.97;;;;;;;;;;5087404;28;20040;-88
2022/04/18 12:21:57;;;;;;;8.32;4.55;;;;;;;;;;5069331;28;20121;-89
2022/04/18 12:24:23;;;;;;;6.55;4.22;;;;;;;;;;5070455;28;20048;-86
2022/04/18 12:26:51;;;;;;;7.82;5.28;;;;;;;;;;5063106;28;20040;-85
2022/04/18 12:29:19;;;;;;;7.78;5.05;;;;;;;;;;5066193;28;20048;-86
2022/04/18 12:31:46;;;;;;;7.72;5.43;;;;;;;;;;5086897;28;20530;-87
2022/04/18 12:34:19;;;;;;;7.95;5.15;;;;;;;;;;5070002;28;20044;-87
2022/04/18 12:36:45;;;;;;;7.75;5.30;;;;;;;;;;5069045;28;20399;-85
2022/04/18 12:39:25;;;;;;;7.07;4.90;;;;;;;;;;5073790;28;20047;-86
2022/04/18 12:42:00;;;;;;;7.55;4.50;;;;;;;;;;5091061;28;20040;-87
2022/04/18 12:44:28;;;;;;;8.20;5.00;;;;;;;;;;5073848;28;20039;-87
2022/04/18 12:46:54;;;;;;;8.63;4.63;;;;;;;;;;5087913;28;20641;-88
2022/04/18 12:49:20;;;;;;;7.50;4.70;;;;;;;;;;5069930;28;20036;-88
2022/04/18 12:51:50;;;;;;;7.70;4.70;;;;;;;;;;5085033;28;20097;-88
2022/04/18 12:54:20;;;;;;;7.60;5.07;;;;;;;;;;5069943;28;20487;-87
2022/04/18 12:56:47;;;;;;;6.80;4.38;;;;;;;;;;5063428;28;20040;-86
2022/04/18 12:59:16;;;;;;;6.60;4.78;;;;;;;;;;5080951;28;20070;-86
2022/04/18 13:01:44;;;;;;;7.88;4.68;;;;;;;;;;5067483;28;20075;-84
2022/04/18 13:04:28;;;;;;;8.40;4.93;;;;;;;;;;5073467;28;20494;-86
2022/04/18 13:06:56;;;;;;;8.20;4.85;;;;;;;;;;5090161;28;20040;-87
2022/04/18 13:09:23;;;;;;;6.90;5.05;;;;;;;;;;5071405;28;20442;-86
2022/04/18 13:11:49;;;;;;;7.75;5.10;;;;;;;;;;5070636;28;20036;-86
2022/04/18 13:14:15;;;;;;;6.80;4.72;;;;;;;;;;5070834;28;20104;-86
2022/04/18 13:16:42;;;;;;;7.13;4.70;;;;;;;;;;5070619;28;20547;-88
2022/04/18 13:19:13;;;;;;;7.45;4.38;;;;;;;;;;5070933;28;20408;-87
2022/04/18 13:21:40;;;;;;;7.88;4.75;;;;;;;;;;5070650;28;20036;-86
2022/04/18 13:24:06;;;;;;;7.25;4.93;;;;;;;;;;5067916;28;20450;-88
2022/04/18 13:26:33;;;;;;;7.80;5.05;;;;;;;;;;5093851;28;20406;-86
2022/04/18 13:28:59;;;;;;;10.20;4.97;;;;;;;;;;5076000;28;20028;-87
2022/04/18 13:31:26;;;;;;;7.13;4.85;;;;;;;;;;5076779;28;20035;-86
2022/04/18 13:33:53;;;;;;;7.15;5.10;;;;;;;;;;5071576;28;20044;-88
2022/04/18 13:36:33;;;;;;;6.57;4.70;;;;;;;;;;5090030;28;20044;-86
2022/04/18 13:38:59;;;;;;;6.93;5.10;;;;;;;;;;5073242;28;20044;-87
2022/04/18 13:41:26;;;;;;;6.63;4.78;;;;;;;;;;5074039;28;20044;-87
2022/04/18 13:43:52;;;;;;;6.53;4.93;;;;;;;;;;5073122;28;20062;-89
2022/04/18 13:46:21;;;;;;;5.82;4.13;;;;;;;;;;5073634;28;20036;-87
2022/04/18 13:48:48;;;;;;;7.93;4.93;;;;;;;;;;5075156;28;20044;-88
2022/04/18 13:51:16;;;;;;;6.45;4.82;;;;;;;;;;5072722;28;20031;-89
2022/04/18 13:53:42;;;;;;;6.60;4.80;;;;;;;;;;5090137;28;20043;-87
2022/04/18 13:56:08;;;;;;;7.43;4.60;;;;;;;;;;5072588;28;20036;-86
2022/04/18 13:58:34;;;;;;;7.35;4.82;;;;;;;;;;5071315;28;20491;-86
2022/04/18 14:01:01;;;;;;;7.20;4.55;;;;;;;;;;5089607;28;20061;-87
2022/04/18 14:03:27;;;;;;;6.78;4.43;;;;;;;;;;5072551;28;20135;-87
2022/04/18 14:05:55;;;;;;;6.97;4.40;;;;;;;;;;5072238;28;20036;-87
2022/04/18 14:08:21;;;;;;;7.10;4.75;;;;;;;;;;5071877;28;20073;-89
2022/04/18 14:10:48;;;;;;;7.05;5.05;;;;;;;;;;5090142;28;20506;-88
2022/04/18 14:13:14;;;;;;;6.78;4.78;;;;;;;;;;5073152;28;20044;-90
2022/04/18 14:21:09;;;;;;;;;;;;;;;;;;5083802;28;20044;-89
2022/04/18 14:23:36;;;;;;;7.70;5.70;;;;;;;;;;5069142;28;19940;-88
2022/04/18 14:26:02;;;;;;;8.10;5.40;;;;;;;;;;5053408;28;20044;-88
2022/04/18 14:28:28;;;;;;;6.30;4.65;;;;;;;;;;5089282;28;20036;-89
2022/04/18 14:30:55;;;;;;;8.15;4.97;;;;;;;;;;5071446;28;20031;-91
2022/04/18 14:33:21;;;;;;;6.28;4.53;;;;;;;;;;5082320;28;20196;-89
2022/04/18 14:35:47;;;;;;;7.10;4.75;;;;;;;;;;5085825;28;20048;-88
2022/04/18 14:38:15;;;;;;;6.13;4.72;;;;;;;;;;5072695;28;20079;-87
2022/04/18 14:40:43;;;;;;;7.10;4.80;;;;;;;;;;5072560;28;20127;-89
2022/04/18 14:43:14;;;;;;;7.25;5.00;;;;;;;;;;5090910;28;20173;-88
2022/04/18 14:45:41;;;;;;;6.53;4.82;;;;;;;;;;5076555;28;20644;-89
2022/04/18 14:48:08;;;;;;;6.78;5.30;;;;;;;;;;5076118;28;20058;-86
2022/04/18 14:50:34;;;;;;;7.43;4.97;;;;;;;;;;5075996;28;20036;-90
2022/04/18 14:53:01;;;;;;;7.93;5.53;;;;;;;;;;5074447;28;20498;-89
2022/04/18 14:55:27;;;;;;;13.60;5.05;;;;;;;;;;5076069;28;20047;-89
2022/04/18 14:57:53;;;;;;;9.75;4.63;;;;;;;;;;5075793;28;20040;-88